Time;durP1;ratioP1;P1;durP2;ratioP2;P2;SDS_P1;SDS_P2;PMS_P1;PMS_P2;Temp;Humidity;BMP_temperature;BMP_pressure;BME280_temperature;BME280_humidity;BME280_pressure;Samples;Min_cycle;Max_cycle;Signal;HPM_P1;HPM_P2
2023/04/17 00:07:02;;;;;;;17.3;9.5;;;;;;;6.4;82.4;98790;;;;
2023/04/17 00:16:59;;;;;;;17.3;9.5;;;;;;;6.1;83.6;98790;;;;
2023/04/17 00:27:59;;;;;;;17.3;11.3;;;;;;;6.1;84.8;98780;;;;
2023/04/17 00:38:59;;;;;;;17.3;11.3;;;;;;;6.1;85.2;98780;;;;
2023/04/17 00:48:59;;;;;;;18.7;11.1;;;;;;;5.9;85.1;98780;;;;
2023/04/17 00:59:59;;;;;;;18.7;11.1;;;;;;;5.7;84.7;98790;;;;
2023/04/17 01:09:59;;;;;;;18.7;11.1;;;;;;;5.6;84.2;98780;;;;
2023/04/17 01:21:00;;;;;;;19.2;11.1;;;;;;;5.4;84.7;98780;;;;
2023/04/17 01:31:59;;;;;;;19.2;11.1;;;;;;;5.4;84.7;98780;;;;
2023/04/17 01:41:59;;;;;;;19.2;11.1;;;;;;;5.4;84.8;98770;;;;
2023/04/17 01:51:59;;;;;;;17.7;9.6;;;;;;;5.5;85.2;98770;;;;
2023/04/17 02:01:59;;;;;;;17.7;9.6;;;;;;;5.6;85.4;98770;;;;
2023/04/17 02:12:59;;;;;;;17.7;9.6;;;;;;;5.8;85.4;98780;;;;
2023/04/17 02:22:59;;;;;;;19.9;10.9;;;;;;;5.6;85.3;98790;;;;
2023/04/17 02:33:59;;;;;;;19.9;10.9;;;;;;;5.8;85.9;98800;;;;
2023/04/17 02:43:59;;;;;;;19.9;10.9;;;;;;;6.2;86.5;98790;;;;
2023/04/17 02:54:59;;;;;;;21;11.4;;;;;;;6.5;86.8;98800;;;;
2023/04/17 03:05:01;;;;;;;21;11.4;;;;;;;6.7;87.3;98800;;;;
2023/04/17 03:14:59;;;;;;;21;11.4;;;;;;;7.1;87.4;98800;;;;
2023/04/17 03:24:59;;;;;;;19.1;13.9;;;;;;;7.4;87.2;98800;;;;
2023/04/17 03:35:59;;;;;;;19.1;13.9;;;;;;;7.6;86.5;98810;;;;
2023/04/17 03:46:59;;;;;;;19.1;13.9;;;;;;;7.8;85.5;98810;;;;
2023/04/17 03:57:00;;;;;;;20.7;14.4;;;;;;;7.8;84.2;98820;;;;
2023/04/17 04:07:00;;;;;;;20.7;14.4;;;;;;;7.8;84;98830;;;;
2023/04/17 04:17:59;;;;;;;26.8;16.8;;;;;;;8;83.4;98830;;;;
2023/04/17 04:28:00;;;;;;;26.8;16.8;;;;;;;7.9;82.6;98840;;;;
2023/04/17 04:38:59;;;;;;;26.8;16.8;;;;;;;8;82.5;98850;;;;
2023/04/17 04:48:59;;;;;;;29.4;18.5;;;;;;;8.1;82.9;98850;;;;
2023/04/17 04:58:59;;;;;;;29.4;18.5;;;;;;;8.4;83.2;98850;;;;
2023/04/17 05:08:59;;;;;;;29.4;18.5;;;;;;;8.5;83;98850;;;;
2023/04/17 05:18:59;;;;;;;28.2;20.6;;;;;;;8.7;82.7;98850;;;;
2023/04/17 05:29:59;;;;;;;28.2;20.6;;;;;;;8.9;82.4;98860;;;;
2023/04/17 05:40:00;;;;;;;28.2;20.6;;;;;;;9.1;81.7;98860;;;;
2023/04/17 05:49:59;;;;;;;24;20.1;;;;;;;9.4;81.6;98870;;;;
2023/04/17 06:00:59;;;;;;;24;20.1;;;;;;;9.6;80.8;98860;;;;
2023/04/17 06:10:59;;;;;;;24;20.1;;;;;;;9.8;80.2;98880;;;;
2023/04/17 06:21:59;;;;;;;25.5;21.6;;;;;;;9.9;81.6;98880;;;;
2023/04/17 06:31:59;;;;;;;25.5;21.6;;;;;;;10.3;80.7;98880;;;;
2023/04/17 06:42:59;;;;;;;25.5;21.6;;;;;;;11.2;80.2;98890;;;;
2023/04/17 06:52:59;;;;;;;25;20.2;;;;;;;11.2;78.1;98900;;;;
2023/04/17 07:02:59;;;;;;;25;20.2;;;;;;;11.4;78.4;98910;;;;
2023/04/17 07:13:59;;;;;;;25;20.2;;;;;;;11.7;77.8;98900;;;;
2023/04/17 07:23:59;;;;;;;24.3;20.7;;;;;;;12.3;77.4;98900;;;;
2023/04/17 07:33:59;;;;;;;24.3;20.7;;;;;;;12.2;76.9;98910;;;;
2023/04/17 07:44:02;;;;;;;24.3;20.7;;;;;;;12.5;76.2;98910;;;;
2023/04/17 07:54:59;;;;;;;24.3;18.6;;;;;;;12.5;76.4;98910;;;;
2023/04/17 08:05:59;;;;;;;24.3;18.6;;;;;;;12.9;76.9;98920;;;;
2023/04/17 08:16:00;;;;;;;24.3;18.6;;;;;;;13;75.8;98920;;;;
2023/04/17 08:25:59;;;;;;;29.1;21.5;;;;;;;13;76.2;98920;;;;
2023/04/17 08:35:59;;;;;;;29.1;21.5;;;;;;;13;77.1;98920;;;;
2023/04/17 08:45:59;;;;;;;29.1;21.5;;;;;;;12.8;77.9;98930;;;;
2023/04/17 08:57:00;;;;;;;27.2;20.3;;;;;;;12.4;80.3;98930;;;;
2023/04/17 09:06:59;;;;;;;27.2;20.3;;;;;;;12;81.5;98940;;;;
2023/04/17 09:17:59;;;;;;;21.3;18.9;;;;;;;12;82.5;98940;;;;
2023/04/17 09:27:59;;;;;;;21.3;18.9;;;;;;;11.9;83.1;98940;;;;
2023/04/17 09:38:59;;;;;;;21.3;18.9;;;;;;;11.9;83.5;98940;;;;
2023/04/17 09:49:59;;;;;;;28;23.5;;;;;;;12.3;83.5;98940;;;;
2023/04/17 10:00:03;;;;;;;28;23.5;;;;;;;12.3;83;98940;;;;
2023/04/17 10:10:00;;;;;;;28;23.5;;;;;;;12.6;83.1;98950;;;;
2023/04/17 10:19:59;;;;;;;27;21.2;;;;;;;13.1;82.4;98940;;;;
2023/04/17 10:29:59;;;;;;;27;21.2;;;;;;;13.3;81.7;98930;;;;
2023/04/17 10:40:59;;;;;;;27;21.2;;;;;;;13.9;80.3;98930;;;;
2023/04/17 10:50:59;;;;;;;26.6;19.5;;;;;;;13.9;77.7;98920;;;;
2023/04/17 11:01:59;;;;;;;26.6;19.5;;;;;;;13.5;77.8;98910;;;;
2023/04/17 11:12:00;;;;;;;26.6;19.5;;;;;;;13.4;78.8;98920;;;;
2023/04/17 11:22:01;;;;;;;14.3;12.1;;;;;;;13.1;79.5;98920;;;;
2023/04/17 11:32:59;;;;;;;14.3;12.1;;;;;;;13.3;79.4;98930;;;;
2023/04/17 11:42:59;;;;;;;14.3;12.1;;;;;;;13;79.8;98940;;;;
2023/04/17 11:53:59;;;;;;;14.5;10.7;;;;;;;12.9;80.4;98930;;;;
2023/04/17 12:03:59;;;;;;;14.5;10.7;;;;;;;12.9;79.9;98930;;;;
2023/04/17 12:14:59;;;;;;;14.5;10.7;;;;;;;12.6;79.9;98930;;;;
2023/04/17 12:24:59;;;;;;;13.2;11;;;;;;;12.4;81.3;98930;;;;
2023/04/17 12:34:59;;;;;;;13.2;11;;;;;;;12.4;81.8;98920;;;;
2023/04/17 12:44:59;;;;;;;13.2;11;;;;;;;12.2;82.9;98920;;;;
2023/04/17 12:55:00;;;;;;;13;8.9;;;;;;;11.8;85.1;98930;;;;
2023/04/17 13:04:59;;;;;;;13;8.9;;;;;;;11.8;84.5;98920;;;;
2023/04/17 13:15:59;;;;;;;13;8.9;;;;;;;11.9;84.4;98920;;;;
2023/04/17 13:27:00;;;;;;;12;8;;;;;;;11.6;85.3;98920;;;;
2023/04/17 13:38:01;;;;;;;12;8;;;;;;;11.5;84.9;98920;;;;
2023/04/17 13:47:59;;;;;;;13.8;9;;;;;;;11.6;85.3;98920;;;;
2023/04/17 13:58:59;;;;;;;13.8;9;;;;;;;11.5;85.3;98910;;;;
2023/04/17 14:08:59;;;;;;;13.8;9;;;;;;;11.4;85.8;98910;;;;
2023/04/17 14:18:59;;;;;;;9.8;6.8;;;;;;;11.5;84.8;98920;;;;
2023/04/17 14:29:59;;;;;;;9.8;6.8;;;;;;;11.4;84.5;98910;;;;
2023/04/17 14:40:00;;;;;;;9.8;6.8;;;;;;;11.4;85.4;98900;;;;
2023/04/17 14:49:59;;;;;;;9.1;6.4;;;;;;;11.4;85.7;98900;;;;
2023/04/17 14:59:59;;;;;;;9.1;6.4;;;;;;;11;86.7;98900;;;;
2023/04/17 15:09:59;;;;;;;9.1;6.4;;;;;;;10.9;88.5;98900;;;;
2023/04/17 15:20:00;;;;;;;12.4;7.5;;;;;;;10.9;89.4;98900;;;;
2023/04/17 15:29:59;;;;;;;12.4;7.5;;;;;;;10.8;90.3;98900;;;;
2023/04/17 15:39:59;;;;;;;12.4;7.5;;;;;;;10.8;90.8;98900;;;;
2023/04/17 15:49:59;;;;;;;13.7;9.5;;;;;;;10.8;90.6;98900;;;;
2023/04/17 16:00:59;;;;;;;13.7;9.5;;;;;;;10.8;90.4;98900;;;;
2023/04/17 16:10:59;;;;;;;13.7;9.5;;;;;;;10.7;90.4;98900;;;;
2023/04/17 16:21:59;;;;;;;20.2;15.2;;;;;;;10.8;90;98900;;;;
2023/04/17 16:31:59;;;;;;;20.2;15.2;;;;;;;10.7;90.3;98910;;;;
2023/04/17 16:42:59;;;;;;;20.2;15.2;;;;;;;10.7;90.1;98920;;;;
2023/04/17 16:53:00;;;;;;;15.4;8.9;;;;;;;10.7;89.8;98930;;;;
2023/04/17 17:03:59;;;;;;;15.4;8.9;;;;;;;10.7;89.8;98920;;;;
2023/04/17 17:14:00;;;;;;;15.4;8.9;;;;;;;10.5;90.3;98930;;;;
2023/04/17 17:24:59;;;;;;;17.1;10.7;;;;;;;10.5;90.4;98930;;;;
2023/04/17 17:34:59;;;;;;;17.1;10.7;;;;;;;10.4;90.7;98940;;;;
2023/04/17 17:45:00;;;;;;;17.1;10.7;;;;;;;10.5;90.8;98940;;;;
2023/04/17 17:55:59;;;;;;;10;5.3;;;;;;;10.4;91.2;98950;;;;
2023/04/17 18:07:00;;;;;;;10;5.3;;;;;;;10.3;91.2;98960;;;;
2023/04/17 18:17:59;;;;;;;8.9;5.8;;;;;;;10.2;91.2;98970;;;;
2023/04/17 18:27:59;;;;;;;8.9;5.8;;;;;;;10.1;91.4;98970;;;;
2023/04/17 18:38:00;;;;;;;8.9;5.8;;;;;;;10.1;91.3;98980;;;;
2023/04/17 18:48:00;;;;;;;15.8;9.5;;;;;;;10;91.5;98970;;;;
2023/04/17 18:58:00;;;;;;;15.8;9.5;;;;;;;10;91.4;98970;;;;
2023/04/17 19:08:59;;;;;;;15.8;9.5;;;;;;;9.9;91.8;98970;;;;
2023/04/17 19:18:59;;;;;;;16;10.5;;;;;;;9.9;92;98970;;;;
2023/04/17 19:29:01;;;;;;;16;10.5;;;;;;;9.9;92;98970;;;;
2023/04/17 19:40:00;;;;;;;16;10.5;;;;;;;9.8;91.9;98960;;;;
2023/04/17 19:50:00;;;;;;;10.4;5.9;;;;;;;9.9;91.9;98950;;;;
2023/04/17 20:00:00;;;;;;;10.4;5.9;;;;;;;9.8;92;98950;;;;
2023/04/17 20:11:00;;;;;;;10.4;5.9;;;;;;;9.8;92.1;98950;;;;
2023/04/17 20:21:00;;;;;;;9.8;7.2;;;;;;;9.8;91.9;98940;;;;
2023/04/17 20:32:00;;;;;;;9.8;7.2;;;;;;;9.8;91.7;98950;;;;
2023/04/17 20:43:00;;;;;;;9.8;7.2;;;;;;;9.8;91.7;98950;;;;
2023/04/17 20:53:00;;;;;;;9;6.3;;;;;;;9.7;92.1;98950;;;;
2023/04/17 21:03:00;;;;;;;9;6.3;;;;;;;9.7;92.2;98950;;;;
2023/04/17 21:13:00;;;;;;;9;6.3;;;;;;;9.6;92.3;98950;;;;
2023/04/17 21:23:00;;;;;;;9.5;6.5;;;;;;;9.6;92.2;98950;;;;
2023/04/17 21:34:00;;;;;;;9.5;6.5;;;;;;;9.6;92.1;98950;;;;
2023/04/17 21:44:01;;;;;;;9.5;6.5;;;;;;;9.7;92.1;98940;;;;
2023/04/17 21:55:03;;;;;;;10.4;7.4;;;;;;;9.6;92.2;98940;;;;
2023/04/17 22:05:00;;;;;;;10.4;7.4;;;;;;;9.6;92.2;98940;;;;
2023/04/17 22:16:01;;;;;;;10.4;7.4;;;;;;;9.6;92.4;98940;;;;
2023/04/17 22:27:00;;;;;;;9;6.9;;;;;;;9.6;92.5;98940;;;;
2023/04/17 22:37:00;;;;;;;9;6.9;;;;;;;9.7;92.4;98930;;;;
2023/04/17 22:47:00;;;;;;;9.8;7.1;;;;;;;9.7;92.5;98940;;;;
2023/04/17 22:58:00;;;;;;;9.8;7.1;;;;;;;9.7;92.5;98940;;;;
2023/04/17 23:08:00;;;;;;;9.8;7.1;;;;;;;9.8;92.5;98940;;;;
2023/04/17 23:18:00;;;;;;;10.5;6.5;;;;;;;9.8;92.4;98930;;;;
2023/04/17 23:29:00;;;;;;;10.5;6.5;;;;;;;9.8;92.6;98920;;;;
2023/04/17 23:39:00;;;;;;;10.5;6.5;;;;;;;9.8;92.5;98920;;;;
2023/04/17 23:49:00;;;;;;;11.5;7.9;;;;;;;9.8;92.4;98910;;;;
